Terminal Aerodrome Forecast
Issued by NWS Brownsville, TX

Home | Current Version | Previous Version | Text Only | Print | Product List | Glossary On
Versions: 1 2 3 4 5 6 7 8 9 10 11 12 13 14 15 16
000
FTUS44 KBRO 291100
TAFHRL
TAF
KHRL 291138Z 2912/3012 15006KT P6SM VCSH SCT019 SCT080 SCT100
      TEMPO 2915/2918 5SM -TSRA BKN030CB
     FM291800 15012KT P6SM VCSH OVC030
      TEMPO 2918/2922 5SM -TSRA BR BKN025CB
     FM300000 12011KT P6SM VCSH BKN035
      TEMPO 3000/3003 5SM -TSRA OVC020CB
     FM300300 13007KT P6SM VCSH OVC040
      TEMPO 3003/3006 P6SM -SHRA OVC030
     FM300600 15006KT P6SM SCT040 BKN250 PROB30 3006/3010 5SM -SHRA
      BKN040=

USA.gov is the U.S. government's official web portal to all federal, state and local government web resources and services.